Cookies

¿Aceptas nuestras cookies?

Aceptar
VAM | Vabird-VBD

Virtual Vabird! Aerolínea Virtual de habla hispana, desde 2011




 INFORMACIÓN METAR y TAF
METAR FOR KMMH
ADDS - METARS form results

(1125 UTC 24 October 2021)
Data provider http://aviationweather.gov/metar/data/
 
METAR text: KMMH 241116Z AUTO 23008G12KT 10SM OVC060 07/M02 A2987 RMK AO2
Conditions at: KMMH (MAMMOTH/JUNE LAK, CA, US) observed 1116 UTC 24 October 2021
Temperature: 7.0°C (45°F)
Dewpoint: -2.0°C (28°F) [RH = 53%]
Pressure (altimeter): 29.87 inches Hg (1011.6 mb)
Winds: from the SW (230 degrees) at 9 MPH (8 knots; 4.1 m/s)
gusting to 14 MPH (12 knots; 6.2 m/s)
Visibility: 10 or more miles (16+ km)
Ceiling: 6000 feet AGL
Clouds: overcast cloud deck at 6000 feet AGL
Weather: automated observation with no human augmentation;
there may or may not be significant weather present at this time

METAR text: KMMH 241056Z AUTO 13007KT 10SM OVC060 06/M02 A2988 RMK AO2
Conditions at: KMMH (MAMMOTH/JUNE LAK, CA, US) observed 1056 UTC 24 October 2021
Temperature: 6.0°C (43°F)
Dewpoint: -2.0°C (28°F) [RH = 56%]
Pressure (altimeter): 29.88 inches Hg (1011.9 mb)
Winds: from the SE (130 degrees) at 8 MPH (7 knots; 3.6 m/s)
Visibility: 10 or more miles (16+ km)
Ceiling: 6000 feet AGL
Clouds: overcast cloud deck at 6000 feet AGL
Weather: automated observation with no human augmentation;
there may or may not be significant weather present at this time

METAR text: KMMH 241036Z AUTO 22007KT 10SM OVC060 06/M02 A2988 RMK AO2
Conditions at: KMMH (MAMMOTH/JUNE LAK, CA, US) observed 1036 UTC 24 October 2021
Temperature: 6.0°C (43°F)
Dewpoint: -2.0°C (28°F) [RH = 56%]
Pressure (altimeter): 29.88 inches Hg (1011.9 mb)
Winds: from the SW (220 degrees) at 8 MPH (7 knots; 3.6 m/s)
Visibility: 10 or more miles (16+ km)
Ceiling: 6000 feet AGL
Clouds: overcast cloud deck at 6000 feet AGL
Weather: automated observation with no human augmentation;
there may or may not be significant weather present at this time

Forecast for: KMMH (MAMMOTH/JUNE LAK, CA, US)
Text: KMMH 240537Z 2406/2506 28007KT P6SM SCT060 BKN110
Forecast period: 0600 to 1200 UTC 24 October 2021
Forecast type: FROM: standard forecast or significant change
Winds: from the W (280 degrees) at 8 MPH (7 knots; 3.6 m/s)
Visibility: 6 or more miles (10+ km)
Ceiling: 11000 feet AGL
Clouds: scattered clouds at 6000 feet AGL
broken clouds at 11000 feet AGL
Weather: no significant weather forecast for this period
Text: FM241200 14011G22KT P6SM VCSH SCT050 BKN090 WS020/24040KT
Forecast period: 1200 to 1900 UTC 24 October 2021
Forecast type: FROM: standard forecast or significant change
Winds: from the SE (140 degrees) at 13 MPH (11 knots; 5.7 m/s)
gusting to 25 MPH (22 knots; 11.3 m/s)
Visibility: 6 or more miles (10+ km)
Ceiling: 9000 feet AGL
Clouds: scattered clouds at 5000 feet AGL
broken clouds at 9000 feet AGL
Wind Shear: at 2000 feet ( 610 m) AGL, from the WSW (240 degrees) at 46 MPH (40 knots; 20.8 m/s)
Weather: VCSH  (showers in vicinity)
Text: FM241900 21030G55KT P6SM -SHRA SCT070 WS018/23060KT
Forecast period: 1900 UTC 24 October 2021 to 0600 UTC 25 October 2021
Forecast type: FROM: standard forecast or significant change
Winds: from the SSW (210 degrees) at 34 MPH (30 knots; 15.4 m/s)
gusting to 63 MPH (55 knots; 28.3 m/s)
Visibility: 6 or more miles (10+ km)
Ceiling: at least 12,000 feet AGL
Clouds: scattered clouds at 7000 feet AGL
Wind Shear: at 1800 feet ( 549 m) AGL, from the SW (230 degrees) at 69 MPH (60 knots; 31.2 m/s)
Weather: -SHRA  (light rain showers)

 MAPA DE AEROPUERTO

 INFORMACIÓN DE PISTA